< < Back
Terminal Aerodrome Forecast


Current Version              Previous Versions:   1  2  3  4  5  6  7  8  9  

Terminal Aerodrome Forecast

508
FTUS42 KTAE 042320
TAFTLH
TAF
KTLH 042320Z 0500/0524 30006KT P6SM SKC
     FM051500 30016G25KT P6SM SKC=

Latest METAR

856
SAUS80 KWBC 060900
MTRTLH
METAR KTLH 060853Z AUTO 33005KT 10SM CLR 13/07 A2989 RMK AO2 SLP122
T01280072 53009


USA.gov is the U.S. government's official web portal to all federal, state and local government web resources and services.